21:59
Airports
History
Links
Donate
Help keep this website running!
PayPal
Bitcoin
This page is community maintained. The information is intended for PC simulator navigation or reference.
Always use approved charts for navigation.
ED03
Kamen
Kamen (ED03)
Kamen, Nordrhein-Westfalen, Germany (59174)
(C)
Lat/Lng:51° 35' 26.28" N / 7° 42' 36.03" E
51.590632 / 7.710008
Elevation:203'ft / 62mMSL
ID / ICAO:ED03
Runways:1
Longest:11-29
Grass 933m / 3,062ft
Controlled:Yes
Beacon:White-Green
Nearby Weather19:50 GMT 2017-10-16
Nearby weather at EDLW, Dortmund-Wickede located 6.4 nautical miles from ED03
Altimeter: 30.15
Visibility: 6.2 statute miles
Wind: 9 knots (from 180°)
Temp: 18°c / 64°f
Humidity: 63.6%

METAR: EDLW 161950Z 18009KT CAVOK 18/11 Q1021

(Powered by phpweather)
Airport Radio Frequencies
Tower: 129.98
Nearby VORs <50NM
Nearby NDBs
Runway 11 / 29
Dimensions:933.4 x 39.9m 3062' x 131'ft
Surface:Grass
Edge Lights:Low intensity
Runway 11 [A]Runway 29 [B]
Heading:103°TH 283°TH
Lat:
Lng:
51° 35' 29.78"N
7° 42' 12.37"E
51° 35' 22.78"N
7° 42' 59.68"E
User Notes and Comments
51° 35' 26.28" N / 7° 42' 36.03" E
Distance To
Airport ID:
Nearby Airports
(C) Dortmund-Wickede 6.4 NM
EDLW ( WX ) SW 219°
(U) ARNSBERG MENDEN 11.0 NM
EDLA SE 132°
(C) Soest Bad Sassendorf 21.7 NM
EDLZ E 90°
(U) Borkenberge 22.4 NM
EDLB NW 305°
(C) Marl Loemuehle 23.7 NM
EDLM W 279°
(U) Muenster-Telgte 24.6 NM
EDLT N
(U) Meschede Schueren 30.3 NM
EDKM SE 131°
VFR Chart
Flight Planning at SkyVector.com